createdAt,value
2016-07-26T00:00:11.742Z,21.32
2016-07-26T00:01:11.736Z,21.31
2016-07-26T00:02:11.952Z,21.24
2016-07-26T00:03:11.763Z,21.24
2016-07-26T00:04:11.780Z,21.14
2016-07-26T00:05:11.778Z,21.19
2016-07-26T00:06:11.799Z,21.12
2016-07-26T00:07:11.998Z,21.1
2016-07-26T00:08:12.021Z,21.12
2016-07-26T00:09:12.026Z,21.16
2016-07-26T00:10:12.054Z,21.07
2016-07-26T00:11:12.562Z,21.04
2016-07-26T00:12:11.846Z,21.04
2016-07-26T00:13:12.087Z,21.01
2016-07-26T00:14:12.601Z,20.98
2016-07-26T00:15:11.905Z,21.01
2016-07-26T00:16:12.800Z,21.04
2016-07-26T00:17:11.895Z,20.97
2016-07-26T00:18:12.121Z,21.01
2016-07-26T00:19:12.200Z,20.95
2016-07-26T00:20:11.934Z,20.92
2016-07-26T00:21:12.647Z,20.95
2016-07-26T00:22:11.949Z,20.79
2016-07-26T00:23:26.826Z,20.87
2016-07-26T00:24:11.975Z,20.82
2016-07-26T00:25:12.708Z,20.82
2016-07-26T00:26:12.190Z,20.79
2016-07-26T00:27:12.005Z,20.8
2016-07-26T00:28:12.010Z,20.82
2016-07-26T00:29:26.887Z,20.84
2016-07-26T00:30:12.034Z,20.76
2016-07-26T00:31:12.447Z,20.79
2016-07-26T00:32:12.798Z,20.76
2016-07-26T00:33:12.792Z,20.79
2016-07-26T00:34:12.072Z,20.7
2016-07-26T00:35:12.792Z,20.73
2016-07-26T00:36:12.802Z,20.7
2016-07-26T00:37:13.016Z,20.72
2016-07-26T00:38:12.111Z,20.72
2016-07-26T00:39:12.115Z,20.72
2016-07-26T00:40:12.144Z,20.7
2016-07-26T00:41:12.149Z,20.76
2016-07-26T00:42:12.378Z,20.76
2016-07-26T00:43:13.077Z,20.64
2016-07-26T00:44:12.164Z,20.7
2016-07-26T00:45:12.174Z,20.64
2016-07-26T00:46:12.188Z,20.66
2016-07-26T00:47:12.926Z,20.61
2016-07-26T00:48:12.209Z,20.58
2016-07-26T00:49:12.959Z,20.54
2016-07-26T00:50:12.238Z,20.62
2016-07-26T00:51:12.441Z,20.55
2016-07-26T00:52:12.242Z,20.57
2016-07-26T00:53:12.252Z,20.58
2016-07-26T00:54:12.472Z,20.54
2016-07-26T00:55:12.278Z,20.54
2016-07-26T00:56:12.284Z,20.52
2016-07-26T00:57:12.291Z,20.55
2016-07-26T00:58:12.330Z,20.43
2016-07-26T00:59:12.311Z,20.48
2016-07-26T01:00:12.327Z,20.47
2016-07-26T01:01:12.347Z,20.47
2016-07-26T01:02:12.425Z,20.36
2016-07-26T01:03:12.551Z,20.5
2016-07-26T01:04:12.356Z,20.39
2016-07-26T01:05:27.240Z,20.35
2016-07-26T01:06:12.378Z,20.32
2016-07-26T01:07:12.390Z,20.31
2016-07-26T01:08:13.306Z,20.38
2016-07-26T01:09:12.407Z,20.39
2016-07-26T01:10:13.555Z,20.36
2016-07-26T01:11:12.426Z,20.35
2016-07-26T01:12:12.436Z,20.42
2016-07-26T01:13:13.174Z,20.33
2016-07-26T01:14:13.167Z,20.36
2016-07-26T01:15:13.183Z,20.31
2016-07-26T01:16:13.185Z,20.42
2016-07-26T01:17:12.486Z,20.32
2016-07-26T01:18:13.455Z,20.47
2016-07-26T01:19:12.552Z,20.38
2016-07-26T01:20:12.514Z,20.35
2016-07-26T01:21:12.527Z,20.33
2016-07-26T01:22:12.533Z,20.38
2016-07-26T01:23:13.696Z,20.41
2016-07-26T01:24:12.571Z,20.32
2016-07-26T01:25:12.760Z,20.33
2016-07-26T01:26:13.297Z,20.32
2016-07-26T01:27:12.583Z,20.33
2016-07-26T01:28:12.586Z,20.36
2016-07-26T01:29:13.346Z,20.38
2016-07-26T01:30:12.843Z,20.39
2016-07-26T01:31:12.622Z,20.36
2016-07-26T01:32:12.698Z,20.35
2016-07-26T01:33:12.634Z,20.41
2016-07-26T01:34:12.648Z,20.33
2016-07-26T01:35:12.679Z,20.39
2016-07-26T01:36:12.665Z,20.41
2016-07-26T01:37:12.675Z,20.35
2016-07-26T01:38:12.686Z,20.35
2016-07-26T01:39:12.696Z,20.38
2016-07-26T01:40:12.911Z,20.23
2016-07-26T01:41:13.444Z,20.28
2016-07-26T01:42:12.729Z,20.31
2016-07-26T01:43:12.750Z,20.23
2016-07-26T01:44:13.464Z,20.32
2016-07-26T01:45:12.755Z,20.32
2016-07-26T01:46:12.783Z,20.28
2016-07-26T01:47:12.769Z,20.26
2016-07-26T01:48:12.799Z,20.21
2016-07-26T01:49:12.792Z,20.26
2016-07-26T01:50:12.808Z,20.21
2016-07-26T01:51:12.813Z,20.18
2016-07-26T01:52:12.818Z,20.23
2016-07-26T01:53:12.835Z,20.21
2016-07-26T01:54:12.846Z,20.18
2016-07-26T01:55:12.857Z,20.28
2016-07-26T01:56:12.858Z,20.17
2016-07-26T01:57:12.891Z,20.26
2016-07-26T01:58:12.888Z,20.14
2016-07-26T01:59:12.907Z,20.14
2016-07-26T02:00:12.894Z,20.21
2016-07-26T02:01:12.912Z,20.06
2016-07-26T02:02:12.918Z,20.18
2016-07-26T02:03:13.682Z,20.11
2016-07-26T02:04:13.642Z,20.1
2016-07-26T02:05:12.961Z,20.14
2016-07-26T02:06:12.958Z,20.1
2016-07-26T02:07:13.707Z,20.08
2016-07-26T02:08:13.696Z,20.06
2016-07-26T02:09:12.984Z,20.13
2016-07-26T02:10:12.993Z,20.02
2016-07-26T02:11:13.002Z,20.1
2016-07-26T02:12:13.010Z,20.08
2016-07-26T02:13:13.034Z,20.08
2016-07-26T02:14:13.032Z,20.03
2016-07-26T02:15:13.038Z,20.01
2016-07-26T02:16:13.049Z,20.05
2016-07-26T02:17:13.067Z,20.02
2016-07-26T02:18:13.075Z,20.02
2016-07-26T02:19:13.083Z,20.06
2016-07-26T02:20:13.085Z,20.11
2016-07-26T02:21:13.106Z,19.99
2016-07-26T02:22:13.111Z,20.05
2016-07-26T02:23:13.116Z,20.05
2016-07-26T02:24:13.124Z,20.01
2016-07-26T02:25:13.156Z,20.03
2016-07-26T02:26:13.881Z,20.01
2016-07-26T02:27:13.151Z,20.03
2016-07-26T02:28:13.179Z,20.02
2016-07-26T02:29:13.907Z,20.01
2016-07-26T02:30:13.193Z,20.02
2016-07-26T02:31:13.220Z,20.03
2016-07-26T02:32:13.907Z,20.11
2016-07-26T02:34:13.223Z,20.13
2016-07-26T02:35:13.333Z,20.1
2016-07-26T02:36:13.955Z,20.1
2016-07-26T02:37:15.101Z,20.08
2016-07-26T02:38:13.454Z,20.1
2016-07-26T02:39:13.266Z,20.06
2016-07-26T02:40:13.279Z,20.06
2016-07-26T02:41:13.283Z,20.02
2016-07-26T02:42:14.233Z,20.06
2016-07-26T02:43:13.302Z,20.01
2016-07-26T02:44:13.318Z,19.99
2016-07-26T02:45:14.040Z,20.02
2016-07-26T02:46:13.348Z,20.02
2016-07-26T02:47:13.572Z,20.05
2016-07-26T02:48:13.551Z,20.06
2016-07-26T02:49:13.570Z,20.03
2016-07-26T02:50:14.105Z,20.03
2016-07-26T02:51:14.348Z,19.99
2016-07-26T02:52:13.389Z,20.02
2016-07-26T02:53:14.555Z,20.16
2016-07-26T02:54:13.411Z,20.02
2016-07-26T02:55:13.666Z,20.05
2016-07-26T02:56:13.624Z,20.01
2016-07-26T02:57:13.432Z,19.96
2016-07-26T02:58:13.667Z,20.05
2016-07-26T02:59:13.455Z,19.99
2016-07-26T03:00:13.464Z,20.02
2016-07-26T03:01:13.471Z,20.01
2016-07-26T03:02:13.516Z,19.99
2016-07-26T03:03:13.490Z,20.01
2016-07-26T03:05:13.519Z,20.1
2016-07-26T03:06:13.521Z,20.05
2016-07-26T03:07:14.275Z,20.03
2016-07-26T03:08:13.563Z,20.03
2016-07-26T03:09:13.545Z,20.03
2016-07-26T03:10:13.588Z,20.08
2016-07-26T03:12:13.592Z,20.03
2016-07-26T03:13:13.596Z,20.01
2016-07-26T03:14:13.620Z,20.01
2016-07-26T03:15:13.819Z,20.05
2016-07-26T03:16:13.625Z,19.99
2016-07-26T03:17:13.622Z,20.05
2016-07-26T03:18:13.649Z,20.02
2016-07-26T03:20:13.655Z,20.02
2016-07-26T03:21:13.664Z,20.05
2016-07-26T03:22:13.869Z,20.08
2016-07-26T03:23:13.701Z,20.03
2016-07-26T03:24:13.905Z,20.1
2016-07-26T03:25:14.454Z,20.06
2016-07-26T03:26:13.705Z,20.14
2016-07-26T03:27:13.922Z,20.1
2016-07-26T03:28:14.456Z,20.05
2016-07-26T03:29:13.738Z,20.14
2016-07-26T03:30:13.752Z,20.06
2016-07-26T03:31:13.752Z,20.02
2016-07-26T03:32:13.769Z,20.03
2016-07-26T03:33:13.794Z,20.06
2016-07-26T03:35:13.801Z,20.06
2016-07-26T03:36:13.811Z,19.99
2016-07-26T03:37:14.742Z,20.02
2016-07-26T03:38:13.845Z,20.1
2016-07-26T03:39:14.576Z,19.92
2016-07-26T03:40:13.840Z,19.92
2016-07-26T03:41:14.514Z,20.08
2016-07-26T03:42:14.586Z,19.95
2016-07-26T03:43:14.599Z,19.95
2016-07-26T03:44:13.875Z,19.96
2016-07-26T03:45:13.890Z,19.88
2016-07-26T03:46:13.932Z,20.03
2016-07-26T03:47:13.900Z,20.02
2016-07-26T03:48:13.919Z,19.87
2016-07-26T03:50:13.943Z,19.94
2016-07-26T03:51:14.003Z,19.96
2016-07-26T03:52:13.954Z,19.96
2016-07-26T03:53:13.962Z,20.02
2016-07-26T03:54:13.968Z,19.99
2016-07-26T03:55:13.991Z,20.01
2016-07-26T03:56:13.984Z,19.99
2016-07-26T03:57:14.729Z,20.01
2016-07-26T03:58:14.027Z,20.06
2016-07-26T03:59:14.087Z,20.08
2016-07-26T04:00:14.044Z,20.08
2016-07-26T04:01:14.035Z,20.1
2016-07-26T04:02:14.053Z,20.14
2016-07-26T04:03:14.055Z,20.13
2016-07-26T04:05:14.275Z,20.11
2016-07-26T04:06:15.013Z,20.16
2016-07-26T04:07:14.815Z,20.13
2016-07-26T04:08:14.830Z,20.14
2016-07-26T04:09:14.124Z,20.14
2016-07-26T04:10:14.124Z,20.18
2016-07-26T04:11:14.839Z,20.23
2016-07-26T04:12:14.848Z,20.24
2016-07-26T04:13:14.154Z,20.17
2016-07-26T04:14:14.359Z,20.24
2016-07-26T04:15:14.328Z,20.24
2016-07-26T04:16:14.514Z,20.26
2016-07-26T04:17:14.188Z,20.26
2016-07-26T04:18:14.204Z,20.28
2016-07-26T04:19:14.224Z,20.32
2016-07-26T04:20:14.218Z,20.26
2016-07-26T04:21:14.223Z,20.23
2016-07-26T04:22:14.238Z,20.31
2016-07-26T04:23:14.974Z,20.2
2016-07-26T04:24:14.704Z,20.2
2016-07-26T04:25:14.998Z,20.33
2016-07-26T04:26:14.275Z,20.35
2016-07-26T04:27:15.007Z,20.35
2016-07-26T04:28:14.301Z,20.42
2016-07-26T04:29:15.038Z,20.36
2016-07-26T04:30:14.313Z,20.38
2016-07-26T04:31:14.331Z,20.42
2016-07-26T04:32:14.330Z,20.36
2016-07-26T04:33:14.354Z,20.42
2016-07-26T04:34:14.363Z,20.36
2016-07-26T04:35:29.233Z,20.41
2016-07-26T04:36:14.369Z,20.41
2016-07-26T04:37:14.382Z,20.52
2016-07-26T04:38:14.398Z,20.41
2016-07-26T04:39:14.414Z,20.51
2016-07-26T04:40:14.430Z,20.57
2016-07-26T04:41:30.234Z,20.52
2016-07-26T04:42:14.434Z,20.52
2016-07-26T04:43:14.441Z,20.57
2016-07-26T04:44:14.451Z,20.58
2016-07-26T04:45:14.468Z,20.61
2016-07-26T04:46:14.483Z,20.55
2016-07-26T04:47:14.480Z,20.55
2016-07-26T04:48:14.487Z,20.55
2016-07-26T04:49:14.498Z,20.66
2016-07-26T04:50:14.506Z,20.66
2016-07-26T04:51:14.525Z,20.7
2016-07-26T04:52:14.542Z,20.73
2016-07-26T04:53:15.250Z,20.77
2016-07-26T04:54:15.265Z,20.73
2016-07-26T04:55:14.608Z,20.72
2016-07-26T04:56:14.601Z,20.69
2016-07-26T04:57:14.577Z,20.7
2016-07-26T04:58:14.594Z,20.74
2016-07-26T04:59:14.604Z,20.84
2016-07-26T05:00:14.613Z,20.77
2016-07-26T05:01:15.574Z,20.82
2016-07-26T05:02:15.368Z,20.79
2016-07-26T05:03:15.381Z,20.89
2016-07-26T05:04:14.651Z,20.84
2016-07-26T05:05:14.667Z,20.82
2016-07-26T05:06:15.424Z,20.88
2016-07-26T05:07:15.657Z,20.84
2016-07-26T05:08:14.893Z,20.92
2016-07-26T05:09:14.937Z,20.95
2016-07-26T05:10:14.714Z,20.97
2016-07-26T05:11:14.725Z,21.01
2016-07-26T05:12:14.744Z,21.03
2016-07-26T05:13:14.745Z,20.98
2016-07-26T05:14:14.767Z,21.06
2016-07-26T05:15:14.772Z,21.07
2016-07-26T05:16:14.988Z,21.19
2016-07-26T05:17:14.817Z,21.07
2016-07-26T05:18:14.795Z,21.22
2016-07-26T05:19:15.010Z,21.13
2016-07-26T05:20:14.818Z,21.19
2016-07-26T05:21:44.559Z,21.28
2016-07-26T05:22:15.555Z,21.27
2016-07-26T05:23:15.581Z,21.34
2016-07-26T05:24:15.598Z,21.28
2016-07-26T05:25:14.876Z,21.31
2016-07-26T05:26:30.459Z,21.43
2016-07-26T05:27:14.889Z,21.44
2016-07-26T05:28:15.659Z,21.46
2016-07-26T05:29:15.650Z,21.46
2016-07-26T05:30:15.709Z,21.52
2016-07-26T05:31:15.657Z,21.61
2016-07-26T05:32:15.660Z,21.65
2016-07-26T05:33:15.709Z,21.69
2016-07-26T05:34:14.978Z,21.65
2016-07-26T05:35:30.049Z,21.68
2016-07-26T05:36:15.395Z,21.8
2016-07-26T05:37:15.752Z,21.79
2016-07-26T05:38:16.868Z,21.82
2016-07-26T05:39:15.772Z,21.82
2016-07-26T05:40:16.496Z,21.91
2016-07-26T05:42:15.075Z,21.96
2016-07-26T05:43:15.082Z,21.91
2016-07-26T05:44:15.092Z,22.05
2016-07-26T05:45:15.099Z,22.15
2016-07-26T05:46:15.107Z,22.17
2016-07-26T05:47:15.316Z,22.18
2016-07-26T05:48:15.846Z,22.31
2016-07-26T05:49:15.164Z,22.27
2016-07-26T05:50:15.865Z,22.25
2016-07-26T05:51:15.567Z,22.36
2016-07-26T05:52:15.180Z,22.37
2016-07-26T05:53:15.193Z,22.39
2016-07-26T05:54:15.945Z,22.42
2016-07-26T05:55:15.205Z,22.45
2016-07-26T05:56:15.427Z,22.54
2016-07-26T05:57:15.964Z,22.49
2016-07-26T05:58:15.454Z,22.47
2016-07-26T05:59:16.165Z,22.62
2016-07-26T06:00:16.180Z,22.61
2016-07-26T06:01:30.356Z,22.67
2016-07-26T06:02:16.012Z,22.64
2016-07-26T06:03:31.104Z,22.7
2016-07-26T06:04:15.328Z,22.73
2016-07-26T06:05:15.334Z,22.76
2016-07-26T06:06:15.343Z,22.68
2016-07-26T06:07:15.351Z,22.77
2016-07-26T06:08:16.297Z,22.83
2016-07-26T06:09:15.581Z,22.82
2016-07-26T06:10:16.838Z,22.88
2016-07-26T06:11:16.105Z,22.91
2016-07-26T06:12:15.418Z,22.94
2016-07-26T06:13:30.492Z,23
2016-07-26T06:14:16.175Z,23.09
2016-07-26T06:15:16.175Z,23.07
2016-07-26T06:16:16.233Z,23.15
2016-07-26T06:17:15.484Z,23.15
2016-07-26T06:18:15.486Z,23.17
2016-07-26T06:19:15.498Z,23.2
2016-07-26T06:20:15.516Z,23.32
2016-07-26T06:21:16.455Z,23.38
2016-07-26T06:22:16.245Z,23.43
2016-07-26T06:23:15.747Z,23.4
2016-07-26T06:24:45.290Z,23.57
2016-07-26T06:25:16.504Z,23.53
2016-07-26T06:26:16.340Z,23.7
2016-07-26T06:27:17.044Z,23.61
2016-07-26T06:28:15.813Z,23.6
2016-07-26T06:29:16.347Z,23.63
2016-07-26T06:30:15.632Z,23.68
2016-07-26T06:31:15.646Z,23.73
2016-07-26T06:32:15.659Z,23.73
2016-07-26T06:33:15.953Z,23.75
2016-07-26T06:34:15.687Z,23.75
2016-07-26T06:35:16.428Z,23.84
2016-07-26T06:37:15.733Z,23.8
2016-07-26T06:38:15.743Z,23.84
2016-07-26T06:39:16.484Z,23.97
2016-07-26T06:40:15.996Z,24
2016-07-26T06:41:16.491Z,24
2016-07-26T06:42:16.529Z,24
2016-07-26T06:43:16.591Z,23.97
2016-07-26T06:44:17.479Z,23.94
2016-07-26T06:45:17.309Z,23.97
2016-07-26T06:46:16.795Z,23.97
2016-07-26T06:47:16.759Z,24.02
2016-07-26T06:48:16.581Z,24.15
2016-07-26T06:49:16.335Z,24.13
2016-07-26T06:50:30.763Z,24.08
2016-07-26T06:51:16.775Z,24.12
2016-07-26T06:52:16.663Z,24.1
2016-07-26T06:53:17.202Z,24.24
2016-07-26T06:54:15.948Z,24.2
2016-07-26T06:55:15.958Z,24.12
2016-07-26T06:56:15.976Z,24.22
2016-07-26T06:57:15.987Z,24.25
2016-07-26T06:58:16.745Z,24.28
2016-07-26T06:59:16.158Z,24.21
2016-07-26T07:00:16.030Z,24.37
2016-07-26T07:01:16.062Z,24.35
2016-07-26T07:02:31.201Z,24.34
2016-07-26T07:03:16.816Z,24.32
2016-07-26T07:04:16.804Z,24.39
2016-07-26T07:05:16.091Z,24.42
2016-07-26T07:06:17.121Z,24.37
2016-07-26T07:07:16.128Z,24.46
2016-07-26T07:08:16.136Z,24.49
2016-07-26T07:09:16.144Z,24.49
2016-07-26T07:11:16.177Z,24.47
2016-07-26T07:12:16.203Z,24.46
2016-07-26T07:13:16.946Z,24.58
2016-07-26T07:14:16.210Z,24.57
2016-07-26T07:15:31.089Z,24.57
2016-07-26T07:16:16.967Z,24.57
2016-07-26T07:17:16.256Z,24.6
2016-07-26T07:18:31.126Z,24.61
2016-07-26T07:19:16.280Z,24.65
2016-07-26T07:20:17.004Z,24.73
2016-07-26T07:21:17.248Z,24.71
2016-07-26T07:22:17.253Z,24.77
2016-07-26T07:23:17.282Z,24.76
2016-07-26T07:24:17.788Z,24.73
2016-07-26T07:25:17.090Z,24.8
2016-07-26T07:26:16.585Z,24.8
2016-07-26T07:27:16.389Z,24.78
2016-07-26T07:28:16.410Z,24.8
2016-07-26T07:29:17.362Z,24.9
2016-07-26T07:30:16.440Z,24.91
2016-07-26T07:31:16.449Z,24.98
2016-07-26T07:32:16.452Z,25
2016-07-26T07:33:17.193Z,25.03
2016-07-26T07:34:16.484Z,25.02
2016-07-26T07:35:18.067Z,25.09
2016-07-26T07:36:17.239Z,25.15
2016-07-26T07:37:17.427Z,25.17
2016-07-26T07:38:17.277Z,25.25
2016-07-26T07:39:17.300Z,25.28
2016-07-26T07:40:17.301Z,25.28
2016-07-26T07:41:16.597Z,25.46
2016-07-26T07:42:17.327Z,25.46
2016-07-26T07:43:16.607Z,25.51
2016-07-26T07:44:16.617Z,25.58
2016-07-26T07:45:16.676Z,25.72
2016-07-26T07:46:16.666Z,25.65
2016-07-26T07:47:16.660Z,25.7
2016-07-26T07:48:16.691Z,25.69
2016-07-26T07:49:16.694Z,25.8
2016-07-26T07:50:17.421Z,25.88
2016-07-26T07:51:17.443Z,25.85
2016-07-26T07:52:17.450Z,25.95
2016-07-26T07:53:17.701Z,25.94
2016-07-26T07:54:16.764Z,25.97
2016-07-26T07:55:17.040Z,25.98
2016-07-26T07:56:17.529Z,26.09
2016-07-26T07:57:17.532Z,26.05
2016-07-26T07:58:17.753Z,26.12
2016-07-26T07:59:16.832Z,26.07
2016-07-26T08:00:16.852Z,26.07
2016-07-26T08:01:17.086Z,26.13
2016-07-26T08:02:16.883Z,26.21
2016-07-26T08:03:31.763Z,26.17
2016-07-26T08:05:17.843Z,26.28
2016-07-26T08:06:17.648Z,26.29
2016-07-26T08:07:17.737Z,26.29
2016-07-26T08:08:17.674Z,26.44
2016-07-26T08:09:17.713Z,26.37
2016-07-26T08:10:16.990Z,26.39
2016-07-26T08:11:17.016Z,26.37
2016-07-26T08:12:17.029Z,26.47
2016-07-26T08:14:17.075Z,26.52
2016-07-26T08:15:17.087Z,26.54
2016-07-26T08:16:17.088Z,26.52
2016-07-26T08:17:17.104Z,26.52
2016-07-26T08:18:17.829Z,26.55
2016-07-26T08:20:18.063Z,26.57
2016-07-26T08:21:17.163Z,26.67
2016-07-26T08:22:17.179Z,26.54
2016-07-26T08:23:17.191Z,26.67
2016-07-26T08:24:17.214Z,26.69
2016-07-26T08:25:17.229Z,26.69
2016-07-26T08:26:17.250Z,26.75
2016-07-26T08:27:17.252Z,26.73
2016-07-26T08:28:17.274Z,26.76
2016-07-26T08:29:17.295Z,26.84
2016-07-26T08:30:18.029Z,26.77
2016-07-26T08:31:18.031Z,26.87
2016-07-26T08:32:18.049Z,26.8
2016-07-26T08:33:18.258Z,26.88
2016-07-26T08:35:17.401Z,26.88
2016-07-26T08:36:18.146Z,26.82
2016-07-26T08:37:17.403Z,26.81
2016-07-26T08:38:17.422Z,26.8
2016-07-26T08:39:17.440Z,26.81
2016-07-26T08:40:17.483Z,26.81
2016-07-26T08:41:17.471Z,26.81
2016-07-26T08:42:18.418Z,26.82
2016-07-26T08:43:18.212Z,26.76
2016-07-26T08:44:17.523Z,26.7
2016-07-26T08:45:18.260Z,26.73
2016-07-26T08:46:18.253Z,26.7
2016-07-26T08:47:18.294Z,26.81
2016-07-26T08:48:18.316Z,26.84
2016-07-26T08:50:17.605Z,26.73
2016-07-26T08:51:17.820Z,26.77
2016-07-26T08:52:17.641Z,26.84
2016-07-26T08:53:19.120Z,26.76
2016-07-26T08:54:17.667Z,26.8
2016-07-26T08:55:17.779Z,26.81
2016-07-26T08:56:18.694Z,26.8
2016-07-26T08:57:18.428Z,26.82
2016-07-26T08:58:18.461Z,26.85
2016-07-26T08:59:18.467Z,26.91
2016-07-26T09:00:18.478Z,26.88
2016-07-26T09:01:17.775Z,26.92
2016-07-26T09:02:18.533Z,26.91
2016-07-26T09:03:17.796Z,26.91
2016-07-26T09:05:17.844Z,26.95
2016-07-26T09:06:18.778Z,27.03
2016-07-26T09:07:18.598Z,27.07
2016-07-26T09:08:18.793Z,27.14
2016-07-26T09:09:18.105Z,27.17
2016-07-26T09:10:18.657Z,27.13
2016-07-26T09:11:17.928Z,27.17
2016-07-26T09:12:17.936Z,27.29
2016-07-26T09:13:17.957Z,27.27
2016-07-26T09:14:17.972Z,27.41
2016-07-26T09:15:18.720Z,27.39
2016-07-26T09:16:18.922Z,27.46
2016-07-26T09:17:18.038Z,27.4
2016-07-26T09:18:18.043Z,27.49
2016-07-26T09:20:18.062Z,27.41
2016-07-26T09:22:18.104Z,27.54
2016-07-26T09:23:18.849Z,27.55
2016-07-26T09:24:19.578Z,27.57
2016-07-26T09:25:18.151Z,27.5
2016-07-26T09:26:18.160Z,27.46
2016-07-26T09:27:18.381Z,27.47
2016-07-26T09:28:18.396Z,27.46
2016-07-26T09:29:18.226Z,27.59
2016-07-26T09:30:18.227Z,27.51
2016-07-26T09:31:18.247Z,27.51
2016-07-26T09:32:18.257Z,27.57
2016-07-26T09:33:18.275Z,27.57
2016-07-26T09:35:18.311Z,27.57
2016-07-26T09:36:19.765Z,27.54
2016-07-26T09:37:18.404Z,27.59
2016-07-26T09:38:18.549Z,27.67
2016-07-26T09:39:18.359Z,27.65
2016-07-26T09:40:18.581Z,27.63
2016-07-26T09:41:19.133Z,27.6
2016-07-26T09:42:18.415Z,27.74
2016-07-26T09:43:18.427Z,27.79
2016-07-26T09:44:18.644Z,27.78
2016-07-26T09:46:18.680Z,27.87
2016-07-26T09:47:19.962Z,27.82
2016-07-26T09:48:19.966Z,27.85
2016-07-26T09:50:19.266Z,27.97
2016-07-26T09:51:18.553Z,28.03
2016-07-26T09:52:19.289Z,28
2016-07-26T09:53:19.317Z,28.07
2016-07-26T09:54:18.615Z,28.06
2016-07-26T09:55:18.619Z,28.06
2016-07-26T09:56:19.353Z,28.06
2016-07-26T09:57:19.564Z,28.14
2016-07-26T09:58:18.664Z,28.21
2016-07-26T09:59:19.407Z,28.19
2016-07-26T10:00:18.698Z,28.22
2016-07-26T10:01:18.727Z,28.3
2016-07-26T10:02:19.434Z,28.25
2016-07-26T10:03:18.766Z,28.3
2016-07-26T10:04:48.493Z,28.33
2016-07-26T10:05:20.229Z,28.33
2016-07-26T10:06:19.215Z,28.4
2016-07-26T10:07:33.680Z,28.44
2016-07-26T10:08:18.837Z,28.49
2016-07-26T10:09:18.874Z,28.46
2016-07-26T10:10:19.596Z,28.64
2016-07-26T10:11:18.882Z,28.55
2016-07-26T10:12:18.897Z,28.62
2016-07-26T10:13:33.767Z,28.68
2016-07-26T10:14:19.641Z,28.71
2016-07-26T10:15:18.950Z,28.71
2016-07-26T10:16:34.546Z,28.7
2016-07-26T10:17:20.415Z,28.8
2016-07-26T10:18:19.716Z,28.7
2016-07-26T10:20:19.229Z,28.83
2016-07-26T10:21:19.785Z,28.85
2016-07-26T10:23:19.080Z,28.92
2016-07-26T10:24:19.813Z,28.95
2016-07-26T10:25:33.982Z,29
2016-07-26T10:26:19.121Z,28.93
2016-07-26T10:27:19.350Z,29
2016-07-26T10:28:20.082Z,29.06
2016-07-26T10:29:19.902Z,29.12
2016-07-26T10:30:35.380Z,29.09
2016-07-26T10:31:19.209Z,29.18
2016-07-26T10:32:19.629Z,29.12
2016-07-26T10:33:20.689Z,29.11
2016-07-26T10:35:19.286Z,29.12
2016-07-26T10:36:20.215Z,29.04
2016-07-26T10:37:20.980Z,29.09
2016-07-26T10:38:20.045Z,29.19
2016-07-26T10:39:20.786Z,29.19
2016-07-26T10:40:20.784Z,29.18
2016-07-26T10:41:20.077Z,29.19
2016-07-26T10:42:19.386Z,29.15
2016-07-26T10:43:20.409Z,29.23
2016-07-26T10:44:21.079Z,29.27
2016-07-26T10:45:19.450Z,29.24
2016-07-26T10:46:19.460Z,29.23
2016-07-26T10:47:19.480Z,29.34
2016-07-26T10:48:19.483Z,29.33
2016-07-26T10:50:19.721Z,29.36
2016-07-26T10:51:20.876Z,29.48
2016-07-26T10:52:20.262Z,29.39
2016-07-26T10:53:19.571Z,29.42
2016-07-26T10:54:20.339Z,29.41
2016-07-26T10:55:35.436Z,29.28
2016-07-26T10:56:19.631Z,29.39
2016-07-26T10:57:19.643Z,29.33
2016-07-26T10:58:19.658Z,29.39
2016-07-26T10:59:19.678Z,29.33
2016-07-26T11:00:19.896Z,29.37
2016-07-26T11:01:20.652Z,29.24
2016-07-26T11:02:20.443Z,29.24
2016-07-26T11:03:19.735Z,29.27
2016-07-26T11:05:19.979Z,29.26
2016-07-26T11:06:19.798Z,29.21
2016-07-26T11:07:19.816Z,29.3
2016-07-26T11:08:19.827Z,29.21
2016-07-26T11:09:19.851Z,29.18
2016-07-26T11:10:20.579Z,29.24
2016-07-26T11:11:20.277Z,29.18
2016-07-26T11:12:20.601Z,29.09
2016-07-26T11:13:20.627Z,29.08
2016-07-26T11:14:34.787Z,29.02
2016-07-26T11:15:20.872Z,28.98
2016-07-26T11:16:19.954Z,28.93
2016-07-26T11:17:19.968Z,28.93
2016-07-26T11:18:19.992Z,28.96
2016-07-26T11:21:20.249Z,29
2016-07-26T11:22:20.053Z,29.06
2016-07-26T11:23:20.810Z,29.04
2016-07-26T11:24:20.834Z,29.11
2016-07-26T11:25:20.104Z,29.15
2016-07-26T11:26:20.856Z,29.23
2016-07-26T11:27:21.773Z,29.21
2016-07-26T11:28:20.146Z,29.21
2016-07-26T11:30:20.183Z,29.18
2016-07-26T11:31:20.191Z,29.21
2016-07-26T11:32:20.228Z,29.16
2016-07-26T11:33:20.233Z,29.18
2016-07-26T11:34:35.114Z,29.21
2016-07-26T11:35:20.976Z,29.23
2016-07-26T11:36:35.347Z,29.09
2016-07-26T11:37:20.570Z,29.11
2016-07-26T11:38:20.314Z,29.08
2016-07-26T11:39:35.396Z,29.18
2016-07-26T11:40:20.339Z,29.05
2016-07-26T11:41:20.360Z,29.06
2016-07-26T11:42:20.378Z,29.05
2016-07-26T11:44:20.411Z,28.93
2016-07-26T11:45:20.626Z,28.98
2016-07-26T11:46:21.164Z,28.96
2016-07-26T11:47:21.188Z,28.83
2016-07-26T11:48:21.212Z,28.89
2016-07-26T11:50:20.508Z,28.86
2016-07-26T11:51:20.520Z,28.78
2016-07-26T11:52:20.543Z,28.76
2016-07-26T11:53:20.763Z,28.74
2016-07-26T11:54:20.564Z,28.74
2016-07-26T11:55:21.379Z,28.76
2016-07-26T11:56:35.470Z,28.66
2016-07-26T11:57:21.335Z,28.56
2016-07-26T11:58:21.351Z,28.61
2016-07-26T11:59:20.652Z,28.56
2016-07-26T12:00:21.406Z,28.51
2016-07-26T12:01:21.410Z,28.51
2016-07-26T12:02:21.425Z,28.46
2016-07-26T12:03:20.712Z,28.43
2016-07-26T12:06:20.777Z,28.4
2016-07-26T12:07:20.781Z,28.39
2016-07-26T12:08:21.724Z,28.37
2016-07-26T12:09:21.519Z,28.39
2016-07-26T12:10:21.772Z,28.33
2016-07-26T12:11:21.953Z,28.33
2016-07-26T12:12:21.596Z,28.29
2016-07-26T12:13:21.604Z,28.33
2016-07-26T12:14:21.825Z,28.22
2016-07-26T12:15:21.004Z,28.19
2016-07-26T12:16:20.914Z,28.06
2016-07-26T12:17:21.340Z,28.14
2016-07-26T12:18:20.969Z,28.12
2016-07-26T12:20:36.048Z,27.99
2016-07-26T12:21:23.118Z,27.94
2016-07-26T12:22:21.742Z,27.85
2016-07-26T12:23:21.036Z,27.87
2016-07-26T12:24:22.878Z,27.94
2016-07-26T12:25:21.330Z,27.97
2016-07-26T12:26:21.103Z,27.81
2016-07-26T12:27:21.492Z,27.84
2016-07-26T12:28:21.105Z,27.85
2016-07-26T12:29:21.757Z,27.81
2016-07-26T12:30:21.725Z,27.84
2016-07-26T12:31:21.163Z,27.84
2016-07-26T12:32:50.907Z,27.87
2016-07-26T12:33:22.373Z,27.84
2016-07-26T12:35:22.695Z,27.7
2016-07-26T12:36:22.170Z,27.74
2016-07-26T12:37:22.055Z,27.77
2016-07-26T12:38:36.529Z,27.67
2016-07-26T12:39:22.021Z,27.75
2016-07-26T12:40:21.299Z,27.74
2016-07-26T12:41:36.834Z,27.72
2016-07-26T12:42:21.346Z,27.74
2016-07-26T12:43:21.347Z,27.77
2016-07-26T12:45:21.361Z,27.74
2016-07-26T12:46:22.105Z,27.72
2016-07-26T12:47:22.228Z,27.85
2016-07-26T12:48:36.476Z,27.82
2016-07-26T12:50:22.181Z,27.81
2016-07-26T12:51:21.461Z,27.94
2016-07-26T12:52:21.471Z,27.87
2016-07-26T12:53:22.228Z,27.87
2016-07-26T12:54:21.506Z,27.82
2016-07-26T12:55:22.571Z,27.79
2016-07-26T12:56:21.757Z,27.79
2016-07-26T12:57:21.581Z,27.9
2016-07-26T12:58:22.505Z,27.78
2016-07-26T12:59:21.588Z,27.78
2016-07-26T13:00:22.346Z,27.85
2016-07-26T13:01:21.620Z,27.79
2016-07-26T13:02:22.548Z,27.81
2016-07-26T13:03:21.644Z,27.84
2016-07-26T13:05:22.416Z,27.81
2016-07-26T13:06:21.897Z,27.96
2016-07-26T13:07:21.701Z,27.85
2016-07-26T13:08:21.720Z,28
2016-07-26T13:09:21.730Z,27.99
2016-07-26T13:10:22.474Z,27.9
2016-07-26T13:11:22.479Z,28.03
2016-07-26T13:12:21.793Z,27.97
2016-07-26T13:13:22.738Z,28.03
2016-07-26T13:14:21.807Z,28.06
2016-07-26T13:15:22.553Z,28.12
2016-07-26T13:16:21.843Z,28.04
2016-07-26T13:17:22.055Z,28.11
2016-07-26T13:18:22.821Z,28.09
2016-07-26T13:20:22.882Z,28.18
2016-07-26T13:21:21.922Z,28.18
2016-07-26T13:22:21.932Z,28.15
2016-07-26T13:23:22.663Z,28.19
2016-07-26T13:24:22.700Z,28.21
2016-07-26T13:25:21.976Z,28.19
2016-07-26T13:26:22.731Z,28.22
2016-07-26T13:27:22.747Z,28.29
2016-07-26T13:28:22.114Z,28.25
2016-07-26T13:29:23.528Z,28.24
2016-07-26T13:30:22.053Z,28.24
2016-07-26T13:31:22.820Z,28.15
2016-07-26T13:32:22.820Z,28.3
2016-07-26T13:33:22.111Z,28.27
2016-07-26T13:35:22.861Z,28.27